Terminal Aerodrome Forecast
Issued by NWS Dallas/Fort Worth, TX

Home | Current Version | Previous Version | Text Only | Print | Product List | Glossary On
Versions: 1 2 3 4 5 6 7 8 9 10 11 12 13 14 15 16 17 18 19 20 21 22 23 24 25 26 27 28 29 30 31 32 33 34 35
000
FTUS44 KFWD 281146 CCA
TAFACT
TAF COR
KACT 281146Z 2812/2912 17007KT P6SM BKN020
     FM281700 17014KT P6SM SCT040
     FM290500 17012KT P6SM BKN020
     FM290900 17012KT P6SM VCTS BKN020CB=

USA.gov is the U.S. government's official web portal to all federal, state and local government web resources and services.